sensor_id;sensor_type;location;lat;lon;timestamp;P1;durP1;ratioP1;P2;durP2;ratioP2
22219;SDS011;11279;48.364;10.904;2022-10-18T00:00:55;13.80;;;8.03;;
22219;SDS011;11279;48.364;10.904;2022-10-18T00:01:56;18.17;;;7.73;;
22219;SDS011;11279;48.364;10.904;2022-10-18T00:02:56;14.47;;;8.10;;
22219;SDS011;11279;48.364;10.904;2022-10-18T00:03:57;14.70;;;7.30;;
22219;SDS011;11279;48.364;10.904;2022-10-18T00:04:57;14.93;;;8.47;;
22219;SDS011;11279;48.364;10.904;2022-10-18T00:05:57;14.80;;;8.13;;
22219;SDS011;11279;48.364;10.904;2022-10-18T00:06:58;15.93;;;7.60;;
22219;SDS011;11279;48.364;10.904;2022-10-18T00:07:58;13.07;;;7.83;;
22219;SDS011;11279;48.364;10.904;2022-10-18T00:08:59;15.10;;;7.40;;
22219;SDS011;11279;48.364;10.904;2022-10-18T00:10:00;14.43;;;8.07;;
22219;SDS011;11279;48.364;10.904;2022-10-18T00:11:00;14.60;;;8.57;;
22219;SDS011;11279;48.364;10.904;2022-10-18T00:12:01;20.77;;;7.87;;
22219;SDS011;11279;48.364;10.904;2022-10-18T00:13:01;13.67;;;7.80;;
22219;SDS011;11279;48.364;10.904;2022-10-18T00:14:02;13.83;;;7.70;;
22219;SDS011;11279;48.364;10.904;2022-10-18T00:15:03;15.93;;;8.57;;
22219;SDS011;11279;48.364;10.904;2022-10-18T00:16:07;14.38;;;8.25;;
22219;SDS011;11279;48.364;10.904;2022-10-18T00:17:10;17.35;;;8.07;;
22219;SDS011;11279;48.364;10.904;2022-10-18T00:18:10;12.97;;;7.73;;
22219;SDS011;11279;48.364;10.904;2022-10-18T00:19:11;16.93;;;8.77;;
22219;SDS011;11279;48.364;10.904;2022-10-18T00:20:11;15.70;;;8.30;;
22219;SDS011;11279;48.364;10.904;2022-10-18T00:21:17;14.30;;;8.05;;
22219;SDS011;11279;48.364;10.904;2022-10-18T00:22:18;16.13;;;9.23;;
22219;SDS011;11279;48.364;10.904;2022-10-18T00:23:18;18.07;;;7.73;;
22219;SDS011;11279;48.364;10.904;2022-10-18T00:24:19;12.90;;;7.87;;
22219;SDS011;11279;48.364;10.904;2022-10-18T00:25:20;15.20;;;8.20;;
22219;SDS011;11279;48.364;10.904;2022-10-18T00:27:22;17.80;;;9.10;;
22219;SDS011;11279;48.364;10.904;2022-10-18T00:28:22;15.20;;;8.50;;
22219;SDS011;11279;48.364;10.904;2022-10-18T00:29:23;15.20;;;9.23;;
22219;SDS011;11279;48.364;10.904;2022-10-18T00:30:23;12.97;;;7.77;;
22219;SDS011;11279;48.364;10.904;2022-10-18T00:31:25;15.35;;;7.93;;
22219;SDS011;11279;48.364;10.904;2022-10-18T00:32:27;12.32;;;7.90;;
22219;SDS011;11279;48.364;10.904;2022-10-18T00:33:27;14.47;;;8.23;;
22219;SDS011;11279;48.364;10.904;2022-10-18T00:34:28;13.23;;;8.40;;
22219;SDS011;11279;48.364;10.904;2022-10-18T00:35:28;12.40;;;7.77;;
22219;SDS011;11279;48.364;10.904;2022-10-18T00:36:29;13.80;;;8.27;;
22219;SDS011;11279;48.364;10.904;2022-10-18T00:37:31;17.05;;;9.23;;
22219;SDS011;11279;48.364;10.904;2022-10-18T00:38:32;14.48;;;8.52;;
22219;SDS011;11279;48.364;10.904;2022-10-18T00:39:33;17.73;;;8.73;;
22219;SDS011;11279;48.364;10.904;2022-10-18T00:40:33;14.27;;;8.73;;
22219;SDS011;11279;48.364;10.904;2022-10-18T00:41:34;19.47;;;9.17;;
22219;SDS011;11279;48.364;10.904;2022-10-18T00:42:37;15.10;;;8.60;;
22219;SDS011;11279;48.364;10.904;2022-10-18T00:45:18;16.42;;;8.13;;
22219;SDS011;11279;48.364;10.904;2022-10-18T00:46:21;12.52;;;7.63;;
22219;SDS011;11279;48.364;10.904;2022-10-18T00:47:22;16.40;;;8.57;;
22219;SDS011;11279;48.364;10.904;2022-10-18T00:48:23;17.10;;;9.30;;
22219;SDS011;11279;48.364;10.904;2022-10-18T00:49:26;13.43;;;7.90;;
22219;SDS011;11279;48.364;10.904;2022-10-18T00:50:30;15.65;;;8.55;;
22219;SDS011;11279;48.364;10.904;2022-10-18T00:51:35;15.43;;;9.00;;
22219;SDS011;11279;48.364;10.904;2022-10-18T00:52:41;19.48;;;9.05;;
22219;SDS011;11279;48.364;10.904;2022-10-18T00:53:45;13.07;;;8.30;;
22219;SDS011;11279;48.364;10.904;2022-10-18T00:54:46;17.88;;;9.18;;
22219;SDS011;11279;48.364;10.904;2022-10-18T00:55:47;17.27;;;9.00;;
22219;SDS011;11279;48.364;10.904;2022-10-18T00:56:48;17.63;;;9.53;;
22219;SDS011;11279;48.364;10.904;2022-10-18T00:57:49;19.93;;;8.83;;
22219;SDS011;11279;48.364;10.904;2022-10-18T00:58:51;15.00;;;8.73;;
22219;SDS011;11279;48.364;10.904;2022-10-18T00:59:51;13.70;;;8.00;;
22219;SDS011;11279;48.364;10.904;2022-10-18T01:00:52;14.57;;;9.10;;
22219;SDS011;11279;48.364;10.904;2022-10-18T01:01:52;15.50;;;8.47;;
22219;SDS011;11279;48.364;10.904;2022-10-18T01:02:53;12.73;;;8.40;;
22219;SDS011;11279;48.364;10.904;2022-10-18T01:03:54;14.18;;;8.40;;
22219;SDS011;11279;48.364;10.904;2022-10-18T01:04:56;15.15;;;8.95;;
22219;SDS011;11279;48.364;10.904;2022-10-18T01:05:57;14.27;;;8.13;;
22219;SDS011;11279;48.364;10.904;2022-10-18T01:07:04;15.57;;;8.47;;
22219;SDS011;11279;48.364;10.904;2022-10-18T01:10:05;14.32;;;7.68;;
22219;SDS011;11279;48.364;10.904;2022-10-18T01:18:24;13.43;;;8.18;;
22219;SDS011;11279;48.364;10.904;2022-10-18T01:21:21;15.63;;;7.85;;
22219;SDS011;11279;48.364;10.904;2022-10-18T01:22:32;12.90;;;7.60;;
22219;SDS011;11279;48.364;10.904;2022-10-18T01:25:05;13.77;;;7.60;;
22219;SDS011;11279;48.364;10.904;2022-10-18T01:31:47;16.60;;;8.33;;
22219;SDS011;11279;48.364;10.904;2022-10-18T01:32:50;16.38;;;8.77;;
22219;SDS011;11279;48.364;10.904;2022-10-18T01:33:55;13.25;;;7.65;;
22219;SDS011;11279;48.364;10.904;2022-10-18T01:34:58;15.82;;;8.75;;
22219;SDS011;11279;48.364;10.904;2022-10-18T01:36:18;15.05;;;8.02;;
22219;SDS011;11279;48.364;10.904;2022-10-18T01:37:19;12.75;;;7.60;;
22219;SDS011;11279;48.364;10.904;2022-10-18T01:38:21;15.68;;;8.10;;
22219;SDS011;11279;48.364;10.904;2022-10-18T01:39:27;12.55;;;7.25;;
22219;SDS011;11279;48.364;10.904;2022-10-18T01:40:29;16.42;;;7.20;;
22219;SDS011;11279;48.364;10.904;2022-10-18T01:41:29;17.47;;;7.03;;
22219;SDS011;11279;48.364;10.904;2022-10-18T01:42:30;12.73;;;7.50;;
22219;SDS011;11279;48.364;10.904;2022-10-18T01:43:31;12.73;;;7.20;;
22219;SDS011;11279;48.364;10.904;2022-10-18T01:44:32;15.97;;;8.13;;
22219;SDS011;11279;48.364;10.904;2022-10-18T01:45:33;14.95;;;8.30;;
22219;SDS011;11279;48.364;10.904;2022-10-18T01:46:33;15.53;;;8.00;;
22219;SDS011;11279;48.364;10.904;2022-10-18T01:47:35;12.02;;;7.90;;
22219;SDS011;11279;48.364;10.904;2022-10-18T01:48:36;13.47;;;7.03;;
22219;SDS011;11279;48.364;10.904;2022-10-18T01:49:39;16.48;;;7.93;;
22219;SDS011;11279;48.364;10.904;2022-10-18T01:50:39;16.93;;;7.50;;
22219;SDS011;11279;48.364;10.904;2022-10-18T01:51:40;13.50;;;7.10;;
22219;SDS011;11279;48.364;10.904;2022-10-18T01:52:58;14.10;;;7.57;;
22219;SDS011;11279;48.364;10.904;2022-10-18T01:53:59;12.82;;;7.28;;
22219;SDS011;11279;48.364;10.904;2022-10-18T01:54:59;15.93;;;7.60;;
22219;SDS011;11279;48.364;10.904;2022-10-18T01:56:13;12.50;;;7.40;;
22219;SDS011;11279;48.364;10.904;2022-10-18T01:57:38;19.38;;;8.32;;
22219;SDS011;11279;48.364;10.904;2022-10-18T02:00:23;11.20;;;7.57;;
22219;SDS011;11279;48.364;10.904;2022-10-18T02:01:30;12.95;;;7.25;;
22219;SDS011;11279;48.364;10.904;2022-10-18T02:02:44;12.10;;;7.47;;
22219;SDS011;11279;48.364;10.904;2022-10-18T02:04:22;13.38;;;7.80;;
22219;SDS011;11279;48.364;10.904;2022-10-18T02:05:29;14.10;;;7.72;;
22219;SDS011;11279;48.364;10.904;2022-10-18T02:06:36;13.02;;;8.13;;
22219;SDS011;11279;48.364;10.904;2022-10-18T02:07:43;13.18;;;7.50;;
22219;SDS011;11279;48.364;10.904;2022-10-18T02:09:08;14.13;;;7.93;;
22219;SDS011;11279;48.364;10.904;2022-10-18T02:10:13;14.25;;;8.25;;
22219;SDS011;11279;48.364;10.904;2022-10-18T02:11:18;14.00;;;7.63;;
22219;SDS011;11279;48.364;10.904;2022-10-18T02:12:18;13.73;;;7.60;;
22219;SDS011;11279;48.364;10.904;2022-10-18T02:13:20;12.23;;;7.38;;
22219;SDS011;11279;48.364;10.904;2022-10-18T02:14:21;12.60;;;7.40;;
22219;SDS011;11279;48.364;10.904;2022-10-18T02:15:25;15.60;;;7.88;;
22219;SDS011;11279;48.364;10.904;2022-10-18T02:16:30;14.40;;;7.55;;
22219;SDS011;11279;48.364;10.904;2022-10-18T02:17:45;19.65;;;8.05;;
22219;SDS011;11279;48.364;10.904;2022-10-18T02:18:51;12.73;;;7.55;;
22219;SDS011;11279;48.364;10.904;2022-10-18T02:19:55;15.65;;;8.13;;
22219;SDS011;11279;48.364;10.904;2022-10-18T02:20:56;11.43;;;7.50;;
22219;SDS011;11279;48.364;10.904;2022-10-18T02:21:57;16.75;;;7.78;;
22219;SDS011;11279;48.364;10.904;2022-10-18T02:22:58;12.77;;;7.68;;
22219;SDS011;11279;48.364;10.904;2022-10-18T02:23:59;17.15;;;7.80;;
22219;SDS011;11279;48.364;10.904;2022-10-18T02:25:02;12.68;;;7.78;;
22219;SDS011;11279;48.364;10.904;2022-10-18T02:26:07;13.00;;;7.57;;
22219;SDS011;11279;48.364;10.904;2022-10-18T02:27:07;12.73;;;7.80;;
22219;SDS011;11279;48.364;10.904;2022-10-18T02:28:08;13.83;;;7.40;;
22219;SDS011;11279;48.364;10.904;2022-10-18T02:29:08;18.87;;;8.50;;
22219;SDS011;11279;48.364;10.904;2022-10-18T02:30:09;16.23;;;8.10;;
22219;SDS011;11279;48.364;10.904;2022-10-18T02:31:13;13.97;;;7.77;;
22219;SDS011;11279;48.364;10.904;2022-10-18T02:32:27;13.95;;;8.05;;
22219;SDS011;11279;48.364;10.904;2022-10-18T02:36:37;12.65;;;7.50;;
22219;SDS011;11279;48.364;10.904;2022-10-18T02:37:42;17.45;;;7.57;;
22219;SDS011;11279;48.364;10.904;2022-10-18T02:38:42;15.23;;;8.30;;
22219;SDS011;11279;48.364;10.904;2022-10-18T02:39:45;16.00;;;7.97;;
22219;SDS011;11279;48.364;10.904;2022-10-18T02:40:47;12.95;;;7.07;;
22219;SDS011;11279;48.364;10.904;2022-10-18T02:41:47;15.20;;;8.87;;
22219;SDS011;11279;48.364;10.904;2022-10-18T02:42:49;14.40;;;7.67;;
22219;SDS011;11279;48.364;10.904;2022-10-18T02:43:51;12.65;;;7.10;;
22219;SDS011;11279;48.364;10.904;2022-10-18T02:44:52;13.10;;;7.47;;
22219;SDS011;11279;48.364;10.904;2022-10-18T02:45:52;17.10;;;7.63;;
22219;SDS011;11279;48.364;10.904;2022-10-18T02:46:53;16.70;;;7.97;;
22219;SDS011;11279;48.364;10.904;2022-10-18T02:47:53;14.97;;;7.40;;
22219;SDS011;11279;48.364;10.904;2022-10-18T02:48:54;13.50;;;7.33;;
22219;SDS011;11279;48.364;10.904;2022-10-18T02:49:54;12.80;;;7.10;;
22219;SDS011;11279;48.364;10.904;2022-10-18T02:50:55;13.90;;;7.13;;
22219;SDS011;11279;48.364;10.904;2022-10-18T02:51:55;11.43;;;7.03;;
22219;SDS011;11279;48.364;10.904;2022-10-18T02:52:55;15.37;;;7.00;;
22219;SDS011;11279;48.364;10.904;2022-10-18T02:53:56;11.17;;;7.33;;
22219;SDS011;11279;48.364;10.904;2022-10-18T02:54:56;13.13;;;7.77;;
22219;SDS011;11279;48.364;10.904;2022-10-18T02:55:57;13.87;;;7.03;;
22219;SDS011;11279;48.364;10.904;2022-10-18T02:56:57;15.00;;;7.13;;
22219;SDS011;11279;48.364;10.904;2022-10-18T02:57:58;11.23;;;7.43;;
22219;SDS011;11279;48.364;10.904;2022-10-18T02:58:58;15.20;;;7.70;;
22219;SDS011;11279;48.364;10.904;2022-10-18T02:59:59;13.47;;;6.57;;
22219;SDS011;11279;48.364;10.904;2022-10-18T03:00:59;17.00;;;8.00;;
22219;SDS011;11279;48.364;10.904;2022-10-18T03:01:59;12.10;;;6.97;;
22219;SDS011;11279;48.364;10.904;2022-10-18T03:03:00;13.03;;;7.60;;
22219;SDS011;11279;48.364;10.904;2022-10-18T03:04:00;12.77;;;7.83;;
22219;SDS011;11279;48.364;10.904;2022-10-18T03:05:01;14.60;;;7.13;;
22219;SDS011;11279;48.364;10.904;2022-10-18T03:06:02;13.97;;;7.60;;
22219;SDS011;11279;48.364;10.904;2022-10-18T03:07:03;15.33;;;7.43;;
22219;SDS011;11279;48.364;10.904;2022-10-18T03:08:03;12.03;;;7.43;;
22219;SDS011;11279;48.364;10.904;2022-10-18T03:09:04;12.67;;;7.10;;
22219;SDS011;11279;48.364;10.904;2022-10-18T03:10:05;13.77;;;7.32;;
22219;SDS011;11279;48.364;10.904;2022-10-18T03:11:06;14.98;;;7.93;;
22219;SDS011;11279;48.364;10.904;2022-10-18T03:12:06;14.77;;;7.33;;
22219;SDS011;11279;48.364;10.904;2022-10-18T03:13:08;13.50;;;7.05;;
22219;SDS011;11279;48.364;10.904;2022-10-18T03:14:08;11.27;;;7.63;;
22219;SDS011;11279;48.364;10.904;2022-10-18T03:15:09;14.60;;;7.57;;
22219;SDS011;11279;48.364;10.904;2022-10-18T03:16:10;15.37;;;7.20;;
22219;SDS011;11279;48.364;10.904;2022-10-18T03:17:11;14.00;;;7.45;;
22219;SDS011;11279;48.364;10.904;2022-10-18T03:18:11;11.63;;;7.50;;
22219;SDS011;11279;48.364;10.904;2022-10-18T03:19:12;17.27;;;7.60;;
22219;SDS011;11279;48.364;10.904;2022-10-18T03:20:12;13.80;;;7.00;;
22219;SDS011;11279;48.364;10.904;2022-10-18T03:21:13;11.27;;;6.70;;
22219;SDS011;11279;48.364;10.904;2022-10-18T03:22:13;14.33;;;7.43;;
22219;SDS011;11279;48.364;10.904;2022-10-18T03:23:13;23.07;;;7.73;;
22219;SDS011;11279;48.364;10.904;2022-10-18T03:24:14;14.93;;;7.73;;
22219;SDS011;11279;48.364;10.904;2022-10-18T03:25:15;14.47;;;7.07;;
22219;SDS011;11279;48.364;10.904;2022-10-18T03:26:16;13.70;;;7.28;;
22219;SDS011;11279;48.364;10.904;2022-10-18T03:27:16;12.13;;;6.80;;
22219;SDS011;11279;48.364;10.904;2022-10-18T03:28:17;12.50;;;6.97;;
22219;SDS011;11279;48.364;10.904;2022-10-18T03:29:17;14.33;;;8.00;;
22219;SDS011;11279;48.364;10.904;2022-10-18T03:30:17;15.97;;;7.33;;
22219;SDS011;11279;48.364;10.904;2022-10-18T03:31:18;14.40;;;7.47;;
22219;SDS011;11279;48.364;10.904;2022-10-18T03:32:18;15.63;;;7.47;;
22219;SDS011;11279;48.364;10.904;2022-10-18T03:33:19;16.00;;;8.47;;
22219;SDS011;11279;48.364;10.904;2022-10-18T03:34:19;16.43;;;7.53;;
22219;SDS011;11279;48.364;10.904;2022-10-18T03:35:20;15.97;;;7.83;;
22219;SDS011;11279;48.364;10.904;2022-10-18T03:36:20;13.70;;;7.97;;
22219;SDS011;11279;48.364;10.904;2022-10-18T03:37:21;17.07;;;8.23;;
22219;SDS011;11279;48.364;10.904;2022-10-18T03:38:21;14.70;;;7.47;;
22219;SDS011;11279;48.364;10.904;2022-10-18T03:39:21;13.63;;;7.63;;
22219;SDS011;11279;48.364;10.904;2022-10-18T03:40:22;15.03;;;7.73;;
22219;SDS011;11279;48.364;10.904;2022-10-18T03:41:22;16.80;;;7.07;;
22219;SDS011;11279;48.364;10.904;2022-10-18T03:42:23;12.97;;;7.17;;
22219;SDS011;11279;48.364;10.904;2022-10-18T03:43:23;15.17;;;7.87;;
22219;SDS011;11279;48.364;10.904;2022-10-18T03:44:24;14.07;;;8.43;;
22219;SDS011;11279;48.364;10.904;2022-10-18T03:45:24;11.43;;;6.97;;
22219;SDS011;11279;48.364;10.904;2022-10-18T03:46:25;13.70;;;7.33;;
22219;SDS011;11279;48.364;10.904;2022-10-18T03:47:25;12.57;;;7.33;;
22219;SDS011;11279;48.364;10.904;2022-10-18T03:48:26;18.83;;;7.53;;
22219;SDS011;11279;48.364;10.904;2022-10-18T03:49:26;19.77;;;7.70;;
22219;SDS011;11279;48.364;10.904;2022-10-18T03:50:27;13.87;;;7.77;;
22219;SDS011;11279;48.364;10.904;2022-10-18T03:51:27;18.30;;;7.70;;
22219;SDS011;11279;48.364;10.904;2022-10-18T03:52:27;12.43;;;7.67;;
22219;SDS011;11279;48.364;10.904;2022-10-18T03:53:28;12.70;;;7.23;;
22219;SDS011;11279;48.364;10.904;2022-10-18T03:54:28;14.80;;;7.87;;
22219;SDS011;11279;48.364;10.904;2022-10-18T03:55:29;12.43;;;7.47;;
22219;SDS011;11279;48.364;10.904;2022-10-18T03:56:29;14.40;;;7.13;;
22219;SDS011;11279;48.364;10.904;2022-10-18T03:57:30;12.53;;;7.30;;
22219;SDS011;11279;48.364;10.904;2022-10-18T03:58:30;17.67;;;7.73;;
22219;SDS011;11279;48.364;10.904;2022-10-18T03:59:30;13.13;;;6.67;;
22219;SDS011;11279;48.364;10.904;2022-10-18T04:00:31;12.50;;;6.83;;
22219;SDS011;11279;48.364;10.904;2022-10-18T04:01:31;15.27;;;7.17;;
22219;SDS011;11279;48.364;10.904;2022-10-18T04:02:32;12.43;;;6.67;;
22219;SDS011;11279;48.364;10.904;2022-10-18T04:03:32;15.43;;;7.10;;
22219;SDS011;11279;48.364;10.904;2022-10-18T04:04:33;11.20;;;6.77;;
22219;SDS011;11279;48.364;10.904;2022-10-18T04:05:33;12.33;;;7.07;;
22219;SDS011;11279;48.364;10.904;2022-10-18T04:06:34;10.97;;;6.30;;
22219;SDS011;11279;48.364;10.904;2022-10-18T04:07:34;16.07;;;7.60;;
22219;SDS011;11279;48.364;10.904;2022-10-18T04:08:35;12.13;;;6.77;;
22219;SDS011;11279;48.364;10.904;2022-10-18T04:09:35;10.90;;;6.53;;
22219;SDS011;11279;48.364;10.904;2022-10-18T04:10:39;15.33;;;6.23;;
22219;SDS011;11279;48.364;10.904;2022-10-18T04:11:40;15.10;;;6.82;;
22219;SDS011;11279;48.364;10.904;2022-10-18T04:12:40;15.83;;;7.10;;
22219;SDS011;11279;48.364;10.904;2022-10-18T04:13:40;16.57;;;6.10;;
22219;SDS011;11279;48.364;10.904;2022-10-18T04:14:41;14.53;;;6.63;;
22219;SDS011;11279;48.364;10.904;2022-10-18T04:15:41;12.87;;;7.23;;
22219;SDS011;11279;48.364;10.904;2022-10-18T04:16:42;12.60;;;6.73;;
22219;SDS011;11279;48.364;10.904;2022-10-18T04:17:42;15.13;;;6.90;;
22219;SDS011;11279;48.364;10.904;2022-10-18T04:18:43;13.80;;;6.70;;
22219;SDS011;11279;48.364;10.904;2022-10-18T04:19:43;13.60;;;7.10;;
22219;SDS011;11279;48.364;10.904;2022-10-18T04:20:44;10.67;;;5.97;;
22219;SDS011;11279;48.364;10.904;2022-10-18T04:21:44;12.80;;;6.53;;
22219;SDS011;11279;48.364;10.904;2022-10-18T04:22:46;10.27;;;6.13;;
22219;SDS011;11279;48.364;10.904;2022-10-18T04:23:47;14.40;;;6.57;;
22219;SDS011;11279;48.364;10.904;2022-10-18T04:24:47;13.23;;;5.77;;
22219;SDS011;11279;48.364;10.904;2022-10-18T04:25:48;12.17;;;6.30;;
22219;SDS011;11279;48.364;10.904;2022-10-18T04:26:48;13.70;;;6.57;;
22219;SDS011;11279;48.364;10.904;2022-10-18T04:27:49;10.63;;;5.80;;
22219;SDS011;11279;48.364;10.904;2022-10-18T04:28:49;18.77;;;7.07;;
22219;SDS011;11279;48.364;10.904;2022-10-18T04:29:50;13.20;;;6.07;;
22219;SDS011;11279;48.364;10.904;2022-10-18T04:30:50;15.17;;;6.13;;
22219;SDS011;11279;48.364;10.904;2022-10-18T04:31:51;15.80;;;6.72;;
22219;SDS011;11279;48.364;10.904;2022-10-18T04:32:52;12.90;;;6.77;;
22219;SDS011;11279;48.364;10.904;2022-10-18T04:33:52;13.37;;;6.77;;
22219;SDS011;11279;48.364;10.904;2022-10-18T04:34:53;12.10;;;6.30;;
22219;SDS011;11279;48.364;10.904;2022-10-18T04:35:53;13.43;;;6.23;;
22219;SDS011;11279;48.364;10.904;2022-10-18T04:36:54;14.40;;;6.70;;
22219;SDS011;11279;48.364;10.904;2022-10-18T04:37:54;10.90;;;5.90;;
22219;SDS011;11279;48.364;10.904;2022-10-18T04:38:55;13.10;;;6.93;;
22219;SDS011;11279;48.364;10.904;2022-10-18T04:39:55;14.07;;;6.17;;
22219;SDS011;11279;48.364;10.904;2022-10-18T04:40:55;10.63;;;5.93;;
22219;SDS011;11279;48.364;10.904;2022-10-18T04:41:56;13.23;;;6.10;;
22219;SDS011;11279;48.364;10.904;2022-10-18T04:42:57;12.07;;;6.37;;
22219;SDS011;11279;48.364;10.904;2022-10-18T04:43:57;11.90;;;6.43;;
22219;SDS011;11279;48.364;10.904;2022-10-18T04:44:57;15.20;;;6.50;;
22219;SDS011;11279;48.364;10.904;2022-10-18T04:45:58;12.70;;;6.40;;
22219;SDS011;11279;48.364;10.904;2022-10-18T04:46:59;12.00;;;6.00;;
22219;SDS011;11279;48.364;10.904;2022-10-18T04:47:59;11.60;;;5.97;;
22219;SDS011;11279;48.364;10.904;2022-10-18T04:49:00;16.97;;;6.27;;
22219;SDS011;11279;48.364;10.904;2022-10-18T04:50:00;13.97;;;7.03;;
22219;SDS011;11279;48.364;10.904;2022-10-18T04:51:01;11.67;;;6.53;;
22219;SDS011;11279;48.364;10.904;2022-10-18T04:52:01;12.90;;;6.00;;
22219;SDS011;11279;48.364;10.904;2022-10-18T04:53:02;12.20;;;7.00;;
22219;SDS011;11279;48.364;10.904;2022-10-18T04:54:02;11.37;;;5.90;;
22219;SDS011;11279;48.364;10.904;2022-10-18T04:55:03;13.50;;;6.40;;
22219;SDS011;11279;48.364;10.904;2022-10-18T04:56:04;11.50;;;6.73;;
22219;SDS011;11279;48.364;10.904;2022-10-18T04:57:05;13.10;;;6.57;;
22219;SDS011;11279;48.364;10.904;2022-10-18T04:58:05;12.97;;;6.67;;
22219;SDS011;11279;48.364;10.904;2022-10-18T04:59:05;11.87;;;6.27;;
22219;SDS011;11279;48.364;10.904;2022-10-18T05:00:06;10.53;;;6.13;;
22219;SDS011;11279;48.364;10.904;2022-10-18T05:01:07;13.27;;;6.20;;
22219;SDS011;11279;48.364;10.904;2022-10-18T05:02:07;11.60;;;6.27;;
22219;SDS011;11279;48.364;10.904;2022-10-18T05:03:08;9.10;;;5.30;;
22219;SDS011;11279;48.364;10.904;2022-10-18T05:04:09;13.57;;;6.32;;
22219;SDS011;11279;48.364;10.904;2022-10-18T05:05:09;11.07;;;6.57;;
22219;SDS011;11279;48.364;10.904;2022-10-18T05:06:10;11.70;;;6.23;;
22219;SDS011;11279;48.364;10.904;2022-10-18T05:07:10;10.50;;;6.40;;
22219;SDS011;11279;48.364;10.904;2022-10-18T05:08:11;11.17;;;6.53;;
22219;SDS011;11279;48.364;10.904;2022-10-18T05:09:11;11.10;;;6.23;;
22219;SDS011;11279;48.364;10.904;2022-10-18T05:10:12;15.00;;;6.33;;
22219;SDS011;11279;48.364;10.904;2022-10-18T05:11:12;13.33;;;7.23;;
22219;SDS011;11279;48.364;10.904;2022-10-18T05:12:13;14.10;;;6.67;;
22219;SDS011;11279;48.364;10.904;2022-10-18T05:13:13;13.57;;;6.73;;
22219;SDS011;11279;48.364;10.904;2022-10-18T05:14:14;15.43;;;7.37;;
22219;SDS011;11279;48.364;10.904;2022-10-18T05:15:15;10.13;;;6.50;;
22219;SDS011;11279;48.364;10.904;2022-10-18T05:16:15;16.60;;;6.93;;
22219;SDS011;11279;48.364;10.904;2022-10-18T05:17:16;13.80;;;7.10;;
22219;SDS011;11279;48.364;10.904;2022-10-18T05:18:16;16.70;;;6.90;;
22219;SDS011;11279;48.364;10.904;2022-10-18T05:19:16;10.80;;;6.80;;
22219;SDS011;11279;48.364;10.904;2022-10-18T05:20:17;13.23;;;6.90;;
22219;SDS011;11279;48.364;10.904;2022-10-18T05:21:17;11.90;;;6.43;;
22219;SDS011;11279;48.364;10.904;2022-10-18T05:22:18;17.83;;;6.83;;
22219;SDS011;11279;48.364;10.904;2022-10-18T05:23:18;13.73;;;6.40;;
22219;SDS011;11279;48.364;10.904;2022-10-18T05:24:19;16.03;;;7.63;;
22219;SDS011;11279;48.364;10.904;2022-10-18T05:25:19;13.43;;;7.10;;
22219;SDS011;11279;48.364;10.904;2022-10-18T05:26:19;14.10;;;8.47;;
22219;SDS011;11279;48.364;10.904;2022-10-18T05:27:20;17.07;;;7.87;;
22219;SDS011;11279;48.364;10.904;2022-10-18T05:28:20;16.23;;;7.40;;
22219;SDS011;11279;48.364;10.904;2022-10-18T05:29:23;10.98;;;6.45;;
22219;SDS011;11279;48.364;10.904;2022-10-18T05:30:24;14.33;;;6.57;;
22219;SDS011;11279;48.364;10.904;2022-10-18T05:31:26;14.05;;;6.68;;
22219;SDS011;11279;48.364;10.904;2022-10-18T05:32:26;16.60;;;6.90;;
22219;SDS011;11279;48.364;10.904;2022-10-18T05:33:27;11.03;;;6.53;;
22219;SDS011;11279;48.364;10.904;2022-10-18T05:34:27;14.63;;;6.67;;
22219;SDS011;11279;48.364;10.904;2022-10-18T05:35:31;13.63;;;7.03;;
22219;SDS011;11279;48.364;10.904;2022-10-18T05:36:31;11.70;;;6.20;;
22219;SDS011;11279;48.364;10.904;2022-10-18T05:37:32;13.20;;;6.30;;
22219;SDS011;11279;48.364;10.904;2022-10-18T05:38:32;15.07;;;6.97;;
22219;SDS011;11279;48.364;10.904;2022-10-18T05:39:32;12.07;;;6.20;;
22219;SDS011;11279;48.364;10.904;2022-10-18T05:40:33;17.30;;;6.97;;
22219;SDS011;11279;48.364;10.904;2022-10-18T05:41:33;11.40;;;6.60;;
22219;SDS011;11279;48.364;10.904;2022-10-18T05:42:35;13.38;;;7.05;;
22219;SDS011;11279;48.364;10.904;2022-10-18T05:43:35;11.30;;;6.67;;
22219;SDS011;11279;48.364;10.904;2022-10-18T05:44:35;14.17;;;7.23;;
22219;SDS011;11279;48.364;10.904;2022-10-18T05:45:36;12.00;;;7.00;;
22219;SDS011;11279;48.364;10.904;2022-10-18T05:46:36;13.10;;;7.27;;
22219;SDS011;11279;48.364;10.904;2022-10-18T05:47:37;12.60;;;7.23;;
22219;SDS011;11279;48.364;10.904;2022-10-18T05:48:37;13.63;;;7.03;;
22219;SDS011;11279;48.364;10.904;2022-10-18T05:49:38;11.87;;;6.30;;
22219;SDS011;11279;48.364;10.904;2022-10-18T05:50:38;14.83;;;7.30;;
22219;SDS011;11279;48.364;10.904;2022-10-18T05:51:38;16.27;;;7.13;;
22219;SDS011;11279;48.364;10.904;2022-10-18T05:52:39;17.57;;;7.23;;
22219;SDS011;11279;48.364;10.904;2022-10-18T05:53:39;13.97;;;6.87;;
22219;SDS011;11279;48.364;10.904;2022-10-18T05:54:40;11.33;;;6.67;;
22219;SDS011;11279;48.364;10.904;2022-10-18T05:55:40;14.00;;;6.50;;
22219;SDS011;11279;48.364;10.904;2022-10-18T05:56:40;18.40;;;7.40;;
22219;SDS011;11279;48.364;10.904;2022-10-18T05:57:41;11.20;;;6.60;;
22219;SDS011;11279;48.364;10.904;2022-10-18T05:58:41;13.20;;;7.10;;
22219;SDS011;11279;48.364;10.904;2022-10-18T05:59:42;18.00;;;7.20;;
22219;SDS011;11279;48.364;10.904;2022-10-18T06:00:43;14.73;;;7.23;;
22219;SDS011;11279;48.364;10.904;2022-10-18T06:01:43;14.00;;;7.50;;
22219;SDS011;11279;48.364;10.904;2022-10-18T06:02:44;18.30;;;6.93;;
22219;SDS011;11279;48.364;10.904;2022-10-18T06:03:45;11.40;;;6.53;;
22219;SDS011;11279;48.364;10.904;2022-10-18T06:04:45;13.53;;;7.30;;
22219;SDS011;11279;48.364;10.904;2022-10-18T06:05:46;14.77;;;7.03;;
22219;SDS011;11279;48.364;10.904;2022-10-18T06:06:46;13.40;;;6.53;;
22219;SDS011;11279;48.364;10.904;2022-10-18T06:07:47;15.27;;;6.77;;
22219;SDS011;11279;48.364;10.904;2022-10-18T06:08:47;11.63;;;7.30;;
22219;SDS011;11279;48.364;10.904;2022-10-18T06:09:48;10.82;;;6.50;;
22219;SDS011;11279;48.364;10.904;2022-10-18T06:10:49;11.53;;;6.37;;
22219;SDS011;11279;48.364;10.904;2022-10-18T06:11:49;16.33;;;6.60;;
22219;SDS011;11279;48.364;10.904;2022-10-18T06:12:49;13.80;;;6.80;;
22219;SDS011;11279;48.364;10.904;2022-10-18T06:13:50;13.23;;;7.00;;
22219;SDS011;11279;48.364;10.904;2022-10-18T06:14:51;12.55;;;6.70;;
22219;SDS011;11279;48.364;10.904;2022-10-18T06:15:55;14.60;;;6.67;;
22219;SDS011;11279;48.364;10.904;2022-10-18T06:16:56;13.05;;;6.90;;
22219;SDS011;11279;48.364;10.904;2022-10-18T06:17:56;17.63;;;6.43;;
22219;SDS011;11279;48.364;10.904;2022-10-18T06:18:58;15.00;;;7.10;;
22219;SDS011;11279;48.364;10.904;2022-10-18T06:19:59;15.15;;;6.72;;
22219;SDS011;11279;48.364;10.904;2022-10-18T06:20:59;11.83;;;6.50;;
22219;SDS011;11279;48.364;10.904;2022-10-18T06:21:59;13.00;;;6.57;;
22219;SDS011;11279;48.364;10.904;2022-10-18T06:23:00;13.33;;;7.00;;
22219;SDS011;11279;48.364;10.904;2022-10-18T06:24:00;14.43;;;6.80;;
22219;SDS011;11279;48.364;10.904;2022-10-18T06:25:01;11.57;;;7.00;;
22219;SDS011;11279;48.364;10.904;2022-10-18T06:26:05;17.07;;;6.77;;